sensor_id;sensor_type;location;lat;lon;timestamp;temperature;humidity
20574;DHT22;10445;50.216;7.912;2022-08-05T00:02:39;20.60;97.00
20574;DHT22;10445;50.216;7.912;2022-08-05T00:05:40;20.60;99.90
20574;DHT22;10445;50.216;7.912;2022-08-05T00:08:50;20.50;99.90
20574;DHT22;10445;50.216;7.912;2022-08-05T00:11:53;20.60;99.90
20574;DHT22;10445;50.216;7.912;2022-08-05T00:14:55;20.50;99.90
20574;DHT22;10445;50.216;7.912;2022-08-05T00:17:43;20.50;99.90
20574;DHT22;10445;50.216;7.912;2022-08-05T00:20:34;20.30;99.90
20574;DHT22;10445;50.216;7.912;2022-08-05T00:23:24;20.10;99.90
20574;DHT22;10445;50.216;7.912;2022-08-05T00:26:33;20.10;99.90
20574;DHT22;10445;50.216;7.912;2022-08-05T00:29:21;20.20;99.90
20574;DHT22;10445;50.216;7.912;2022-08-05T00:32:12;20.20;99.90
20574;DHT22;10445;50.216;7.912;2022-08-05T00:35:02;20.30;99.90
20574;DHT22;10445;50.216;7.912;2022-08-05T00:38:04;20.30;99.90
20574;DHT22;10445;50.216;7.912;2022-08-05T00:40:57;20.00;99.90
20574;DHT22;10445;50.216;7.912;2022-08-05T00:43:47;20.10;99.90
20574;DHT22;10445;50.216;7.912;2022-08-05T00:46:36;20.10;99.90
20574;DHT22;10445;50.216;7.912;2022-08-05T00:49:30;20.10;99.90
20574;DHT22;10445;50.216;7.912;2022-08-05T00:52:37;20.00;99.90
20574;DHT22;10445;50.216;7.912;2022-08-05T00:55:26;19.80;99.90
20574;DHT22;10445;50.216;7.912;2022-08-05T00:58:30;19.70;99.90
20574;DHT22;10445;50.216;7.912;2022-08-05T01:01:19;19.80;99.90
20574;DHT22;10445;50.216;7.912;2022-08-05T01:04:28;19.80;99.90
20574;DHT22;10445;50.216;7.912;2022-08-05T01:07:17;19.80;99.90
20574;DHT22;10445;50.216;7.912;2022-08-05T01:10:07;19.90;99.90
20574;DHT22;10445;50.216;7.912;2022-08-05T01:13:07;19.90;99.90
20574;DHT22;10445;50.216;7.912;2022-08-05T01:16:12;20.00;99.90
20574;DHT22;10445;50.216;7.912;2022-08-05T01:19:22;20.10;99.90
20574;DHT22;10445;50.216;7.912;2022-08-05T01:22:41;20.30;99.90
20574;DHT22;10445;50.216;7.912;2022-08-05T01:25:59;20.30;99.90
20574;DHT22;10445;50.216;7.912;2022-08-05T01:28:55;20.40;99.90
20574;DHT22;10445;50.216;7.912;2022-08-05T01:31:53;20.40;99.90
20574;DHT22;10445;50.216;7.912;2022-08-05T01:34:47;20.40;99.90
20574;DHT22;10445;50.216;7.912;2022-08-05T01:37:41;20.40;99.90
20574;DHT22;10445;50.216;7.912;2022-08-05T01:40:32;20.40;99.90
20574;DHT22;10445;50.216;7.912;2022-08-05T01:43:22;20.40;99.90
20574;DHT22;10445;50.216;7.912;2022-08-05T01:46:13;20.20;99.90
20574;DHT22;10445;50.216;7.912;2022-08-05T01:49:24;20.10;99.90
20574;DHT22;10445;50.216;7.912;2022-08-05T01:52:36;20.10;99.90
20574;DHT22;10445;50.216;7.912;2022-08-05T01:55:28;20.10;99.90
20574;DHT22;10445;50.216;7.912;2022-08-05T01:58:26;20.10;99.90
20574;DHT22;10445;50.216;7.912;2022-08-05T02:01:33;20.10;99.90
20574;DHT22;10445;50.216;7.912;2022-08-05T02:04:27;20.20;99.90
20574;DHT22;10445;50.216;7.912;2022-08-05T02:07:17;20.10;99.90
20574;DHT22;10445;50.216;7.912;2022-08-05T02:10:09;20.10;99.90
20574;DHT22;10445;50.216;7.912;2022-08-05T02:13:07;20.10;99.90
20574;DHT22;10445;50.216;7.912;2022-08-05T02:16:06;20.10;99.90
20574;DHT22;10445;50.216;7.912;2022-08-05T02:19:08;20.10;99.90
20574;DHT22;10445;50.216;7.912;2022-08-05T02:22:14;20.10;99.90
20574;DHT22;10445;50.216;7.912;2022-08-05T02:25:17;20.20;99.90
20574;DHT22;10445;50.216;7.912;2022-08-05T02:28:09;20.20;99.90
20574;DHT22;10445;50.216;7.912;2022-08-05T02:31:04;20.10;99.90
20574;DHT22;10445;50.216;7.912;2022-08-05T02:34:06;20.10;99.90
20574;DHT22;10445;50.216;7.912;2022-08-05T02:36:58;20.10;99.90
20574;DHT22;10445;50.216;7.912;2022-08-05T02:39:51;20.10;99.90
20574;DHT22;10445;50.216;7.912;2022-08-05T02:42:40;20.10;99.90
20574;DHT22;10445;50.216;7.912;2022-08-05T02:45:40;20.10;99.90
20574;DHT22;10445;50.216;7.912;2022-08-05T02:48:40;20.10;99.90
20574;DHT22;10445;50.216;7.912;2022-08-05T02:51:31;20.20;99.90
20574;DHT22;10445;50.216;7.912;2022-08-05T02:54:41;20.20;99.90
20574;DHT22;10445;50.216;7.912;2022-08-05T02:57:38;20.20;99.90
20574;DHT22;10445;50.216;7.912;2022-08-05T03:00:48;20.20;99.90
20574;DHT22;10445;50.216;7.912;2022-08-05T03:03:39;20.20;99.90
20574;DHT22;10445;50.216;7.912;2022-08-05T03:06:50;20.20;99.90
20574;DHT22;10445;50.216;7.912;2022-08-05T03:09:46;20.10;99.90
20574;DHT22;10445;50.216;7.912;2022-08-05T03:12:38;20.10;99.90
20574;DHT22;10445;50.216;7.912;2022-08-05T03:15:29;20.00;99.90
20574;DHT22;10445;50.216;7.912;2022-08-05T03:18:20;19.90;99.90
20574;DHT22;10445;50.216;7.912;2022-08-05T03:21:16;19.90;99.90
20574;DHT22;10445;50.216;7.912;2022-08-05T03:24:08;19.90;99.90
20574;DHT22;10445;50.216;7.912;2022-08-05T03:26:59;19.70;99.90
20574;DHT22;10445;50.216;7.912;2022-08-05T03:29:48;19.60;99.90
20574;DHT22;10445;50.216;7.912;2022-08-05T03:32:55;19.60;99.90
20574;DHT22;10445;50.216;7.912;2022-08-05T03:35:44;19.60;99.90
20574;DHT22;10445;50.216;7.912;2022-08-05T03:38:39;19.50;99.90
20574;DHT22;10445;50.216;7.912;2022-08-05T03:41:30;19.40;99.90
20574;DHT22;10445;50.216;7.912;2022-08-05T03:44:32;19.40;99.90
20574;DHT22;10445;50.216;7.912;2022-08-05T03:47:21;19.40;99.90
20574;DHT22;10445;50.216;7.912;2022-08-05T03:50:10;19.40;99.90
20574;DHT22;10445;50.216;7.912;2022-08-05T03:53:04;19.40;99.90
20574;DHT22;10445;50.216;7.912;2022-08-05T03:56:22;19.40;99.90
20574;DHT22;10445;50.216;7.912;2022-08-05T03:59:23;19.40;99.90
20574;DHT22;10445;50.216;7.912;2022-08-05T04:02:26;19.50;99.90
20574;DHT22;10445;50.216;7.912;2022-08-05T04:05:32;19.50;99.90
20574;DHT22;10445;50.216;7.912;2022-08-05T04:08:25;19.50;99.90
20574;DHT22;10445;50.216;7.912;2022-08-05T04:11:22;19.50;99.90
20574;DHT22;10445;50.216;7.912;2022-08-05T04:14:32;19.50;99.90
20574;DHT22;10445;50.216;7.912;2022-08-05T04:17:22;19.60;99.90
20574;DHT22;10445;50.216;7.912;2022-08-05T04:20:31;19.60;99.90
20574;DHT22;10445;50.216;7.912;2022-08-05T04:23:21;19.60;99.90
20574;DHT22;10445;50.216;7.912;2022-08-05T04:26:30;19.60;99.90
20574;DHT22;10445;50.216;7.912;2022-08-05T04:29:19;19.60;99.90
20574;DHT22;10445;50.216;7.912;2022-08-05T04:32:18;19.60;99.90
20574;DHT22;10445;50.216;7.912;2022-08-05T04:35:19;19.60;99.90
20574;DHT22;10445;50.216;7.912;2022-08-05T04:38:09;19.60;99.90
20574;DHT22;10445;50.216;7.912;2022-08-05T04:41:01;19.60;99.90
20574;DHT22;10445;50.216;7.912;2022-08-05T04:43:51;19.50;99.90
20574;DHT22;10445;50.216;7.912;2022-08-05T04:46:41;19.40;99.90
20574;DHT22;10445;50.216;7.912;2022-08-05T04:49:36;19.30;99.90
20574;DHT22;10445;50.216;7.912;2022-08-05T04:52:45;19.20;99.90
20574;DHT22;10445;50.216;7.912;2022-08-05T04:55:36;19.10;99.90
20574;DHT22;10445;50.216;7.912;2022-08-05T04:58:45;19.00;99.90
20574;DHT22;10445;50.216;7.912;2022-08-05T05:01:34;18.90;99.90
20574;DHT22;10445;50.216;7.912;2022-08-05T05:04:44;18.80;99.90
20574;DHT22;10445;50.216;7.912;2022-08-05T05:07:39;18.80;99.90
20574;DHT22;10445;50.216;7.912;2022-08-05T05:13:47;18.90;99.90
20574;DHT22;10445;50.216;7.912;2022-08-05T05:16:49;18.90;99.90
20574;DHT22;10445;50.216;7.912;2022-08-05T05:19:40;18.70;99.90
20574;DHT22;10445;50.216;7.912;2022-08-05T05:22:35;18.70;99.90
20574;DHT22;10445;50.216;7.912;2022-08-05T05:25:27;18.60;99.90
20574;DHT22;10445;50.216;7.912;2022-08-05T05:28:19;18.60;99.90
20574;DHT22;10445;50.216;7.912;2022-08-05T05:31:11;18.50;99.90
20574;DHT22;10445;50.216;7.912;2022-08-05T05:33:59;18.50;99.90
20574;DHT22;10445;50.216;7.912;2022-08-05T05:36:59;18.50;99.90
20574;DHT22;10445;50.216;7.912;2022-08-05T05:40:04;18.50;99.90
20574;DHT22;10445;50.216;7.912;2022-08-05T05:43:06;18.50;99.90
20574;DHT22;10445;50.216;7.912;2022-08-05T05:46:10;18.60;99.90
20574;DHT22;10445;50.216;7.912;2022-08-05T05:49:10;18.70;99.90
20574;DHT22;10445;50.216;7.912;2022-08-05T05:52:17;18.70;99.90
20574;DHT22;10445;50.216;7.912;2022-08-05T05:55:22;18.60;99.90
20574;DHT22;10445;50.216;7.912;2022-08-05T05:58:31;18.60;99.90
20574;DHT22;10445;50.216;7.912;2022-08-05T06:01:42;18.60;99.90
20574;DHT22;10445;50.216;7.912;2022-08-05T06:04:47;18.60;99.90
20574;DHT22;10445;50.216;7.912;2022-08-05T06:08:01;18.70;99.90
20574;DHT22;10445;50.216;7.912;2022-08-05T06:10:54;18.80;99.90
20574;DHT22;10445;50.216;7.912;2022-08-05T06:13:44;18.80;99.90
20574;DHT22;10445;50.216;7.912;2022-08-05T06:16:48;18.80;99.90
20574;DHT22;10445;50.216;7.912;2022-08-05T06:19:51;18.70;99.90
20574;DHT22;10445;50.216;7.912;2022-08-05T06:22:53;18.60;99.90
20574;DHT22;10445;50.216;7.912;2022-08-05T06:25:53;18.60;99.90
20574;DHT22;10445;50.216;7.912;2022-08-05T06:29:04;18.60;99.90
20574;DHT22;10445;50.216;7.912;2022-08-05T06:32:13;18.70;99.90
20574;DHT22;10445;50.216;7.912;2022-08-05T06:35:23;18.80;99.90
20574;DHT22;10445;50.216;7.912;2022-08-05T06:38:45;19.00;99.90
20574;DHT22;10445;50.216;7.912;2022-08-05T06:41:44;19.10;99.90
20574;DHT22;10445;50.216;7.912;2022-08-05T06:44:52;19.20;99.90
20574;DHT22;10445;50.216;7.912;2022-08-05T06:47:43;19.40;99.90
20574;DHT22;10445;50.216;7.912;2022-08-05T06:50:53;19.50;99.90
20574;DHT22;10445;50.216;7.912;2022-08-05T06:53:43;19.60;99.90
20574;DHT22;10445;50.216;7.912;2022-08-05T06:56:55;19.60;99.90
20574;DHT22;10445;50.216;7.912;2022-08-05T07:00:16;19.80;99.90
20574;DHT22;10445;50.216;7.912;2022-08-05T07:03:35;19.90;99.90
20574;DHT22;10445;50.216;7.912;2022-08-05T07:06:21;20.10;99.90
20574;DHT22;10445;50.216;7.912;2022-08-05T07:12:57;20.30;99.90
20574;DHT22;10445;50.216;7.912;2022-08-05T07:16:25;20.30;99.90
20574;DHT22;10445;50.216;7.912;2022-08-05T07:19:57;20.40;99.90
20574;DHT22;10445;50.216;7.912;2022-08-05T07:23:19;20.50;99.90
20574;DHT22;10445;50.216;7.912;2022-08-05T07:26:26;20.60;99.90
20574;DHT22;10445;50.216;7.912;2022-08-05T07:29:21;20.70;99.90
20574;DHT22;10445;50.216;7.912;2022-08-05T07:32:34;20.80;99.90
20574;DHT22;10445;50.216;7.912;2022-08-05T07:35:23;20.90;99.90
20574;DHT22;10445;50.216;7.912;2022-08-05T07:38:32;20.90;99.90
20574;DHT22;10445;50.216;7.912;2022-08-05T07:41:30;20.90;99.90
20574;DHT22;10445;50.216;7.912;2022-08-05T07:44:40;20.90;99.90
20574;DHT22;10445;50.216;7.912;2022-08-05T07:47:32;21.00;99.90
20574;DHT22;10445;50.216;7.912;2022-08-05T07:50:28;21.00;99.90
20574;DHT22;10445;50.216;7.912;2022-08-05T07:53:19;21.10;99.90
20574;DHT22;10445;50.216;7.912;2022-08-05T07:56:13;21.00;99.90
20574;DHT22;10445;50.216;7.912;2022-08-05T07:59:21;20.90;99.90
20574;DHT22;10445;50.216;7.912;2022-08-05T08:02:28;20.80;99.90
20574;DHT22;10445;50.216;7.912;2022-08-05T08:05:37;20.80;99.50
20574;DHT22;10445;50.216;7.912;2022-08-05T08:08:35;20.80;99.90
20574;DHT22;10445;50.216;7.912;2022-08-05T08:11:24;20.80;99.50
20574;DHT22;10445;50.216;7.912;2022-08-05T08:14:26;20.70;98.00
20574;DHT22;10445;50.216;7.912;2022-08-05T08:17:28;20.70;99.90
20574;DHT22;10445;50.216;7.912;2022-08-05T08:20:27;20.70;98.80
20574;DHT22;10445;50.216;7.912;2022-08-05T08:23:36;20.80;99.90
20574;DHT22;10445;50.216;7.912;2022-08-05T08:26:54;20.80;96.60
20574;DHT22;10445;50.216;7.912;2022-08-05T08:29:43;20.60;95.30
20574;DHT22;10445;50.216;7.912;2022-08-05T08:32:53;20.70;98.50
20574;DHT22;10445;50.216;7.912;2022-08-05T08:35:43;20.80;96.50
20574;DHT22;10445;50.216;7.912;2022-08-05T08:38:40;21.00;99.30
20574;DHT22;10445;50.216;7.912;2022-08-05T08:41:40;21.10;97.30
20574;DHT22;10445;50.216;7.912;2022-08-05T08:44:46;21.20;95.70
20574;DHT22;10445;50.216;7.912;2022-08-05T08:47:57;21.30;96.60
20574;DHT22;10445;50.216;7.912;2022-08-05T08:51:09;21.40;96.00
20574;DHT22;10445;50.216;7.912;2022-08-05T08:54:18;21.60;94.60
20574;DHT22;10445;50.216;7.912;2022-08-05T08:57:13;21.60;90.80
20574;DHT22;10445;50.216;7.912;2022-08-05T09:00:04;21.70;91.10
20574;DHT22;10445;50.216;7.912;2022-08-05T09:02:57;21.70;90.00
20574;DHT22;10445;50.216;7.912;2022-08-05T09:05:46;21.80;90.20
20574;DHT22;10445;50.216;7.912;2022-08-05T09:08:56;21.70;87.40
20574;DHT22;10445;50.216;7.912;2022-08-05T09:11:45;21.60;90.90
20574;DHT22;10445;50.216;7.912;2022-08-05T09:14:40;21.60;94.20
20574;DHT22;10445;50.216;7.912;2022-08-05T09:17:49;21.60;91.60
20574;DHT22;10445;50.216;7.912;2022-08-05T09:20:40;21.50;92.40
20574;DHT22;10445;50.216;7.912;2022-08-05T09:23:31;21.40;91.60
20574;DHT22;10445;50.216;7.912;2022-08-05T09:26:29;21.40;93.20
20574;DHT22;10445;50.216;7.912;2022-08-05T09:29:19;21.60;93.90
20574;DHT22;10445;50.216;7.912;2022-08-05T09:32:17;21.70;93.20
20574;DHT22;10445;50.216;7.912;2022-08-05T09:35:26;21.60;93.20
20574;DHT22;10445;50.216;7.912;2022-08-05T09:38:17;21.70;92.40
20574;DHT22;10445;50.216;7.912;2022-08-05T09:41:15;21.80;91.20
20574;DHT22;10445;50.216;7.912;2022-08-05T09:44:05;21.90;88.50
20574;DHT22;10445;50.216;7.912;2022-08-05T09:47:06;22.00;88.00
20574;DHT22;10445;50.216;7.912;2022-08-05T09:50:00;22.10;91.30
20574;DHT22;10445;50.216;7.912;2022-08-05T09:52:56;22.20;89.80
20574;DHT22;10445;50.216;7.912;2022-08-05T09:55:50;22.20;87.60
20574;DHT22;10445;50.216;7.912;2022-08-05T09:58:59;22.20;89.10
20574;DHT22;10445;50.216;7.912;2022-08-05T10:01:50;22.20;87.80
20574;DHT22;10445;50.216;7.912;2022-08-05T10:04:44;22.30;89.30
20574;DHT22;10445;50.216;7.912;2022-08-05T10:07:42;22.20;84.40
20574;DHT22;10445;50.216;7.912;2022-08-05T10:10:53;22.10;85.90
20574;DHT22;10445;50.216;7.912;2022-08-05T10:13:42;22.20;86.10
20574;DHT22;10445;50.216;7.912;2022-08-05T10:16:35;22.20;86.40
20574;DHT22;10445;50.216;7.912;2022-08-05T10:19:39;22.20;87.90
20574;DHT22;10445;50.216;7.912;2022-08-05T10:22:49;22.20;84.80
20574;DHT22;10445;50.216;7.912;2022-08-05T10:25:39;22.00;87.60
20574;DHT22;10445;50.216;7.912;2022-08-05T10:28:30;21.90;88.40
20574;DHT22;10445;50.216;7.912;2022-08-05T10:31:23;21.90;92.50
20574;DHT22;10445;50.216;7.912;2022-08-05T10:34:32;21.90;91.50
20574;DHT22;10445;50.216;7.912;2022-08-05T10:37:27;22.00;93.70
20574;DHT22;10445;50.216;7.912;2022-08-05T10:40:34;22.10;91.50
20574;DHT22;10445;50.216;7.912;2022-08-05T10:43:47;22.10;92.00
20574;DHT22;10445;50.216;7.912;2022-08-05T10:46:45;22.10;90.70
20574;DHT22;10445;50.216;7.912;2022-08-05T10:50:02;21.90;91.40
20574;DHT22;10445;50.216;7.912;2022-08-05T10:53:32;21.70;93.10
20574;DHT22;10445;50.216;7.912;2022-08-05T10:56:25;21.40;89.10
20574;DHT22;10445;50.216;7.912;2022-08-05T10:59:25;21.20;93.80
20574;DHT22;10445;50.216;7.912;2022-08-05T11:02:34;21.20;93.60
20574;DHT22;10445;50.216;7.912;2022-08-05T11:05:25;21.10;92.00
20574;DHT22;10445;50.216;7.912;2022-08-05T11:08:17;21.00;94.90
20574;DHT22;10445;50.216;7.912;2022-08-05T11:11:33;21.00;94.90
20574;DHT22;10445;50.216;7.912;2022-08-05T11:14:40;21.10;91.40
20574;DHT22;10445;50.216;7.912;2022-08-05T11:17:49;21.30;87.70
20574;DHT22;10445;50.216;7.912;2022-08-05T11:20:50;21.30;87.70
20574;DHT22;10445;50.216;7.912;2022-08-05T11:23:50;21.40;86.60
20574;DHT22;10445;50.216;7.912;2022-08-05T11:27:27;21.70;84.70
20574;DHT22;10445;50.216;7.912;2022-08-05T11:33:33;21.80;81.40
20574;DHT22;10445;50.216;7.912;2022-08-05T11:36:45;22.40;77.40
20574;DHT22;10445;50.216;7.912;2022-08-05T11:39:49;22.50;77.70
20574;DHT22;10445;50.216;7.912;2022-08-05T11:42:49;22.70;73.00
20574;DHT22;10445;50.216;7.912;2022-08-05T11:45:45;22.70;70.20
20574;DHT22;10445;50.216;7.912;2022-08-05T11:48:56;22.60;70.20
20574;DHT22;10445;50.216;7.912;2022-08-05T11:51:46;22.70;69.80
20574;DHT22;10445;50.216;7.912;2022-08-05T11:54:36;22.50;69.40
20574;DHT22;10445;50.216;7.912;2022-08-05T11:57:28;22.20;71.60
20574;DHT22;10445;50.216;7.912;2022-08-05T12:00:38;22.00;71.80
20574;DHT22;10445;50.216;7.912;2022-08-05T12:03:43;22.00;73.30
20574;DHT22;10445;50.216;7.912;2022-08-05T12:06:44;22.20;72.70
20574;DHT22;10445;50.216;7.912;2022-08-05T12:09:37;22.20;75.10
20574;DHT22;10445;50.216;7.912;2022-08-05T12:12:39;22.10;70.80
20574;DHT22;10445;50.216;7.912;2022-08-05T12:15:45;22.10;71.00
20574;DHT22;10445;50.216;7.912;2022-08-05T12:18:36;22.20;70.70
20574;DHT22;10445;50.216;7.912;2022-08-05T12:21:30;22.20;71.80
20574;DHT22;10445;50.216;7.912;2022-08-05T12:24:26;22.10;70.40
20574;DHT22;10445;50.216;7.912;2022-08-05T12:27:20;21.70;72.40
20574;DHT22;10445;50.216;7.912;2022-08-05T12:30:11;21.60;75.40
20574;DHT22;10445;50.216;7.912;2022-08-05T12:33:01;21.70;75.10
20574;DHT22;10445;50.216;7.912;2022-08-05T12:36:10;21.70;75.60
20574;DHT22;10445;50.216;7.912;2022-08-05T12:39:05;21.70;75.70
20574;DHT22;10445;50.216;7.912;2022-08-05T12:41:58;21.50;76.30
20574;DHT22;10445;50.216;7.912;2022-08-05T12:44:47;21.10;79.70
20574;DHT22;10445;50.216;7.912;2022-08-05T12:47:36;21.00;80.90
20574;DHT22;10445;50.216;7.912;2022-08-05T12:51:09;21.00;77.40
20574;DHT22;10445;50.216;7.912;2022-08-05T12:54:20;21.10;69.00
20574;DHT22;10445;50.216;7.912;2022-08-05T12:57:11;21.20;70.20
20574;DHT22;10445;50.216;7.912;2022-08-05T13:00:00;21.50;71.20
20574;DHT22;10445;50.216;7.912;2022-08-05T13:03:09;21.80;64.80
20574;DHT22;10445;50.216;7.912;2022-08-05T13:06:00;22.00;61.30
20574;DHT22;10445;50.216;7.912;2022-08-05T13:08:49;21.90;60.90
20574;DHT22;10445;50.216;7.912;2022-08-05T13:11:41;21.50;63.30
20574;DHT22;10445;50.216;7.912;2022-08-05T13:14:55;21.20;70.50
20574;DHT22;10445;50.216;7.912;2022-08-05T13:17:53;21.00;76.50
20574;DHT22;10445;50.216;7.912;2022-08-05T13:20:45;20.70;73.90
20574;DHT22;10445;50.216;7.912;2022-08-05T13:23:35;20.50;76.10
20574;DHT22;10445;50.216;7.912;2022-08-05T13:26:37;20.40;78.60
20574;DHT22;10445;50.216;7.912;2022-08-05T13:29:27;20.30;80.60
20574;DHT22;10445;50.216;7.912;2022-08-05T13:32:26;20.10;82.60
20574;DHT22;10445;50.216;7.912;2022-08-05T13:35:21;20.00;82.80
20574;DHT22;10445;50.216;7.912;2022-08-05T13:38:30;19.90;84.70
20574;DHT22;10445;50.216;7.912;2022-08-05T13:41:22;19.60;84.70
20574;DHT22;10445;50.216;7.912;2022-08-05T13:44:23;19.40;86.40
20574;DHT22;10445;50.216;7.912;2022-08-05T13:47:13;19.40;87.30
20574;DHT22;10445;50.216;7.912;2022-08-05T13:50:23;19.30;88.40
20574;DHT22;10445;50.216;7.912;2022-08-05T13:53:12;19.40;87.90
20574;DHT22;10445;50.216;7.912;2022-08-05T13:56:02;19.30;89.00
20574;DHT22;10445;50.216;7.912;2022-08-05T13:59:04;19.30;88.90
20574;DHT22;10445;50.216;7.912;2022-08-05T14:02:08;19.30;88.60
20574;DHT22;10445;50.216;7.912;2022-08-05T14:05:06;19.20;90.00
20574;DHT22;10445;50.216;7.912;2022-08-05T14:08:07;19.20;90.80
20574;DHT22;10445;50.216;7.912;2022-08-05T14:11:07;19.20;88.30
20574;DHT22;10445;50.216;7.912;2022-08-05T14:14:08;19.20;88.20
20574;DHT22;10445;50.216;7.912;2022-08-05T14:16:58;19.10;87.70
20574;DHT22;10445;50.216;7.912;2022-08-05T14:19:47;19.20;85.60
20574;DHT22;10445;50.216;7.912;2022-08-05T14:22:43;19.20;84.50
20574;DHT22;10445;50.216;7.912;2022-08-05T14:25:37;19.20;85.20
20574;DHT22;10445;50.216;7.912;2022-08-05T14:28:31;19.20;83.60
20574;DHT22;10445;50.216;7.912;2022-08-05T14:31:20;19.10;84.40
20574;DHT22;10445;50.216;7.912;2022-08-05T14:34:29;19.30;83.80
20574;DHT22;10445;50.216;7.912;2022-08-05T14:37:22;19.50;82.40
20574;DHT22;10445;50.216;7.912;2022-08-05T14:40:31;19.60;81.80
20574;DHT22;10445;50.216;7.912;2022-08-05T14:43:21;19.70;81.00
20574;DHT22;10445;50.216;7.912;2022-08-05T14:46:31;19.80;78.00
20574;DHT22;10445;50.216;7.912;2022-08-05T14:49:21;19.80;78.30
20574;DHT22;10445;50.216;7.912;2022-08-05T14:52:30;19.70;78.20
20574;DHT22;10445;50.216;7.912;2022-08-05T14:55:38;19.70;76.60
20574;DHT22;10445;50.216;7.912;2022-08-05T14:58:29;19.70;76.70
20574;DHT22;10445;50.216;7.912;2022-08-05T15:01:18;19.70;77.40
20574;DHT22;10445;50.216;7.912;2022-08-05T15:04:26;19.80;73.70
20574;DHT22;10445;50.216;7.912;2022-08-05T15:07:15;20.10;75.10
20574;DHT22;10445;50.216;7.912;2022-08-05T15:10:24;20.30;70.00
20574;DHT22;10445;50.216;7.912;2022-08-05T15:13:15;20.10;65.90
20574;DHT22;10445;50.216;7.912;2022-08-05T15:16:05;20.00;67.20
20574;DHT22;10445;50.216;7.912;2022-08-05T15:18:59;19.90;67.70
20574;DHT22;10445;50.216;7.912;2022-08-05T15:21:48;19.80;68.30
20574;DHT22;10445;50.216;7.912;2022-08-05T15:24:38;19.80;60.40
20574;DHT22;10445;50.216;7.912;2022-08-05T15:27:26;19.70;62.80
20574;DHT22;10445;50.216;7.912;2022-08-05T15:30:22;19.70;60.90
20574;DHT22;10445;50.216;7.912;2022-08-05T15:33:12;19.70;59.30
20574;DHT22;10445;50.216;7.912;2022-08-05T15:36:21;19.70;56.50
20574;DHT22;10445;50.216;7.912;2022-08-05T15:39:12;19.70;57.20
20574;DHT22;10445;50.216;7.912;2022-08-05T15:42:20;19.80;57.80
20574;DHT22;10445;50.216;7.912;2022-08-05T15:45:29;19.80;52.90
20574;DHT22;10445;50.216;7.912;2022-08-05T15:48:26;19.90;52.60
20574;DHT22;10445;50.216;7.912;2022-08-05T15:51:16;19.80;54.30
20574;DHT22;10445;50.216;7.912;2022-08-05T15:54:28;20.00;53.60
20574;DHT22;10445;50.216;7.912;2022-08-05T15:57:21;20.00;49.50
20574;DHT22;10445;50.216;7.912;2022-08-05T16:00:11;20.10;46.60
20574;DHT22;10445;50.216;7.912;2022-08-05T16:03:03;20.10;47.90
20574;DHT22;10445;50.216;7.912;2022-08-05T16:05:53;20.10;42.00
20574;DHT22;10445;50.216;7.912;2022-08-05T16:08:42;20.10;36.20
20574;DHT22;10445;50.216;7.912;2022-08-05T16:11:31;20.10;35.80
20574;DHT22;10445;50.216;7.912;2022-08-05T16:14:29;20.20;35.50
20574;DHT22;10445;50.216;7.912;2022-08-05T16:17:18;20.30;31.50
20574;DHT22;10445;50.216;7.912;2022-08-05T16:20:08;20.30;30.30
20574;DHT22;10445;50.216;7.912;2022-08-05T16:22:59;20.50;21.90
20574;DHT22;10445;50.216;7.912;2022-08-05T16:25:49;20.50;17.20
20574;DHT22;10445;50.216;7.912;2022-08-05T16:28:42;20.40;14.10
20574;DHT22;10445;50.216;7.912;2022-08-05T16:31:30;20.40;12.50
20574;DHT22;10445;50.216;7.912;2022-08-05T16:34:39;20.40;12.70
20574;DHT22;10445;50.216;7.912;2022-08-05T16:37:28;20.40;8.70
20574;DHT22;10445;50.216;7.912;2022-08-05T16:40:39;20.40;7.70
20574;DHT22;10445;50.216;7.912;2022-08-05T16:43:34;20.50;8.30
20574;DHT22;10445;50.216;7.912;2022-08-05T16:46:23;20.50;4.20
20574;DHT22;10445;50.216;7.912;2022-08-05T16:49:12;20.50;3.60
20574;DHT22;10445;50.216;7.912;2022-08-05T16:52:02;20.50;3.80
20574;DHT22;10445;50.216;7.912;2022-08-05T16:54:51;20.40;2.70
20574;DHT22;10445;50.216;7.912;2022-08-05T16:57:42;20.40;2.10
20574;DHT22;10445;50.216;7.912;2022-08-05T17:00:40;20.30;2.60
20574;DHT22;10445;50.216;7.912;2022-08-05T17:03:33;20.20;3.50
20574;DHT22;10445;50.216;7.912;2022-08-05T17:06:21;20.30;2.70
20574;DHT22;10445;50.216;7.912;2022-08-05T17:09:11;20.20;1.00
20574;DHT22;10445;50.216;7.912;2022-08-05T17:12:00;20.30;3.10
20574;DHT22;10445;50.216;7.912;2022-08-05T17:14:51;20.20;1.00
20574;DHT22;10445;50.216;7.912;2022-08-05T17:17:40;20.20;1.00
20574;DHT22;10445;50.216;7.912;2022-08-05T17:20:30;20.10;2.20
20574;DHT22;10445;50.216;7.912;2022-08-05T17:23:19;20.00;3.00
20574;DHT22;10445;50.216;7.912;2022-08-05T17:26:27;20.00;2.80
20574;DHT22;10445;50.216;7.912;2022-08-05T17:29:16;20.00;4.10
20574;DHT22;10445;50.216;7.912;2022-08-05T17:32:20;19.90;2.50
20574;DHT22;10445;50.216;7.912;2022-08-05T17:35:11;20.10;2.70
20574;DHT22;10445;50.216;7.912;2022-08-05T17:38:09;20.10;3.00
20574;DHT22;10445;50.216;7.912;2022-08-05T17:41:06;20.20;1.80
20574;DHT22;10445;50.216;7.912;2022-08-05T17:44:15;20.10;2.50
20574;DHT22;10445;50.216;7.912;2022-08-05T17:47:12;20.10;1.90
20574;DHT22;10445;50.216;7.912;2022-08-05T17:50:18;20.00;2.50
20574;DHT22;10445;50.216;7.912;2022-08-05T17:53:15;19.90;4.20
20574;DHT22;10445;50.216;7.912;2022-08-05T17:56:07;19.80;4.90
20574;DHT22;10445;50.216;7.912;2022-08-05T17:58:58;19.70;6.80
20574;DHT22;10445;50.216;7.912;2022-08-05T18:01:48;19.60;7.20
20574;DHT22;10445;50.216;7.912;2022-08-05T18:04:40;19.50;7.50
20574;DHT22;10445;50.216;7.912;2022-08-05T18:07:41;19.50;7.70
20574;DHT22;10445;50.216;7.912;2022-08-05T18:10:30;19.40;8.50
20574;DHT22;10445;50.216;7.912;2022-08-05T18:13:20;19.30;8.20
20574;DHT22;10445;50.216;7.912;2022-08-05T18:16:12;19.20;8.70
20574;DHT22;10445;50.216;7.912;2022-08-05T18:19:07;19.10;9.00
20574;DHT22;10445;50.216;7.912;2022-08-05T18:21:55;19.00;9.30
20574;DHT22;10445;50.216;7.912;2022-08-05T18:24:57;18.90;9.70
20574;DHT22;10445;50.216;7.912;2022-08-05T18:27:47;18.90;11.20
20574;DHT22;10445;50.216;7.912;2022-08-05T18:30:38;18.80;11.60
20574;DHT22;10445;50.216;7.912;2022-08-05T18:33:27;18.70;12.70
20574;DHT22;10445;50.216;7.912;2022-08-05T18:36:33;18.70;13.30
20574;DHT22;10445;50.216;7.912;2022-08-05T18:39:22;18.70;13.10
20574;DHT22;10445;50.216;7.912;2022-08-05T18:42:32;18.60;14.10
20574;DHT22;10445;50.216;7.912;2022-08-05T18:45:23;18.50;14.70
20574;DHT22;10445;50.216;7.912;2022-08-05T18:48:28;18.50;15.70
20574;DHT22;10445;50.216;7.912;2022-08-05T18:51:19;18.40;16.50
20574;DHT22;10445;50.216;7.912;2022-08-05T18:54:45;18.40;17.60
20574;DHT22;10445;50.216;7.912;2022-08-05T18:57:37;18.30;18.50
20574;DHT22;10445;50.216;7.912;2022-08-05T19:00:39;18.30;19.20